createdAt,value
2022-08-30T00:03:36.138Z,91.53
2022-08-30T00:08:38.803Z,91.68
2022-08-30T00:13:43.819Z,92.10
2022-08-30T00:18:48.033Z,91.87
2022-08-30T00:23:50.463Z,92.09
2022-08-30T00:28:52.549Z,92.40
2022-08-30T00:33:55.969Z,92.45
2022-08-30T00:38:57.911Z,92.72
2022-08-30T00:44:00.934Z,92.45
2022-08-30T00:49:07.911Z,92.33
2022-08-30T00:54:10.934Z,92.82
2022-08-30T00:59:13.655Z,92.68
2022-08-30T01:04:17.594Z,92.63
2022-08-30T01:09:20.279Z,93.09
2022-08-30T01:14:25.307Z,93.04
2022-08-30T01:19:35.885Z,93.38
2022-08-30T01:24:39.458Z,93.32
2022-08-30T01:29:41.908Z,93.61
2022-08-30T01:34:44.015Z,93.53
2022-08-30T01:39:47.560Z,93.87
2022-08-30T01:44:49.539Z,94.05
2022-08-30T01:49:51.879Z,94.00
2022-08-30T01:54:55.232Z,93.88
2022-08-30T01:59:56.926Z,93.72
2022-08-30T02:04:59.166Z,94.33
2022-08-30T02:10:02.895Z,93.46
2022-08-30T02:15:06.015Z,93.87
2022-08-30T02:20:09.955Z,93.58
2022-08-30T02:25:18.705Z,93.46
2022-08-30T02:30:23.451Z,93.65
2022-08-30T02:35:26.044Z,93.45
2022-08-30T02:40:29.592Z,94.13
2022-08-30T02:45:32.201Z,93.69
2022-08-30T02:50:34.362Z,94.12
2022-08-30T02:55:37.799Z,94.04
2022-08-30T03:00:40.780Z,94.06
2022-08-30T03:05:42.799Z,94.37
2022-08-30T03:10:45.847Z,94.45
2022-08-30T03:15:48.021Z,94.42
2022-08-30T03:20:54.010Z,94.43
2022-08-30T03:25:58.160Z,94.45
2022-08-30T03:31:00.794Z,94.65
2022-08-30T03:36:02.869Z,94.72
2022-08-30T03:41:07.994Z,94.76
2022-08-30T03:46:12.163Z,94.81
2022-08-30T03:51:13.901Z,95.20
2022-08-30T03:56:17.622Z,95.05
2022-08-30T04:01:19.487Z,94.21
2022-08-30T04:06:21.271Z,93.90
2022-08-30T04:11:24.358Z,93.11
2022-08-30T04:16:26.428Z,93.11
2022-08-30T04:21:28.538Z,92.79
2022-08-30T04:26:31.601Z,92.72
2022-08-30T04:31:33.486Z,92.51
2022-08-30T04:36:35.659Z,92.67
2022-08-30T04:41:39.191Z,92.99
2022-08-30T04:46:44.614Z,92.71
2022-08-30T04:51:46.766Z,93.33
2022-08-30T04:56:49.843Z,93.21
2022-08-30T05:01:51.731Z,93.05
2022-08-30T05:06:53.605Z,92.97
2022-08-30T05:11:56.654Z,92.44
2022-08-30T05:16:58.357Z,92.52
2022-08-30T05:22:00.285Z,91.79
2022-08-30T05:27:03.718Z,91.56
2022-08-30T05:32:05.852Z,91.96
2022-08-30T05:37:07.535Z,92.27
2022-08-30T05:42:11.144Z,91.72
2022-08-30T05:47:19.362Z,88.15
2022-08-30T05:52:22.022Z,88.91
2022-08-30T05:57:25.881Z,87.82
2022-08-30T06:02:28.182Z,87.20
2022-08-30T06:07:29.817Z,86.35
2022-08-30T06:12:33.230Z,84.91
2022-08-30T06:17:34.941Z,85.63
2022-08-30T06:22:37.155Z,84.35
2022-08-30T06:27:40.209Z,84.48
2022-08-30T06:32:41.848Z,79.99
2022-08-30T06:37:43.573Z,78.37
2022-08-30T06:42:46.939Z,77.69
2022-08-30T06:47:48.873Z,79.71
2022-08-30T06:52:50.619Z,82.35
2022-08-30T06:57:53.688Z,82.69
2022-08-30T07:02:55.632Z,79.54
2022-08-30T07:07:57.406Z,75.63
2022-08-30T07:13:00.457Z,73.66
2022-08-30T07:18:02.670Z,76.44
2022-08-30T07:23:04.642Z,75.17
2022-08-30T07:28:09.092Z,74.87
2022-08-30T07:33:10.838Z,72.42
2022-08-30T07:38:13.139Z,73.03
2022-08-30T07:43:16.360Z,75.41
2022-08-30T07:48:18.174Z,74.88
2022-08-30T07:53:20.011Z,76.28
2022-08-30T07:58:24.419Z,75.03
2022-08-30T08:03:26.542Z,73.26
2022-08-30T08:08:28.762Z,75.56
2022-08-30T08:13:32.786Z,72.10
2022-08-30T08:18:38.328Z,73.38
2022-08-30T08:23:40.271Z,70.97
2022-08-30T08:28:44.102Z,70.12
2022-08-30T08:33:45.824Z,67.10
2022-08-30T08:38:47.631Z,66.88
2022-08-30T08:43:50.903Z,67.23
2022-08-30T08:49:00.891Z,68.36
2022-08-30T08:54:08.103Z,67.92
2022-08-30T08:59:13.370Z,66.73
2022-08-30T09:04:20.675Z,64.19
2022-08-30T09:09:27.360Z,58.65
2022-08-30T09:14:34.779Z,55.98
2022-08-30T09:19:40.028Z,50.52
2022-08-30T09:24:45.209Z,54.95
2022-08-30T09:29:58.026Z,61.56
2022-08-30T09:35:00.022Z,67.64
2022-08-30T09:40:07.820Z,71.82
2022-08-30T09:45:20.051Z,71.39
2022-08-30T09:50:21.899Z,70.93
2022-08-30T09:55:54.699Z,67.15
2022-08-30T10:01:06.044Z,66.41
2022-08-30T10:06:18.252Z,57.72
2022-08-30T10:11:28.031Z,59.57
2022-08-30T10:16:41.399Z,54.78
2022-08-30T10:21:49.246Z,54.85
2022-08-30T10:26:56.279Z,61.56
2022-08-30T10:32:04.402Z,61.02
2022-08-30T10:37:09.895Z,62.76
2022-08-30T10:42:18.563Z,57.69
2022-08-30T10:47:29.495Z,51.42
2022-08-30T10:52:39.069Z,53.47
2022-08-30T10:57:43.710Z,51.43
2022-08-30T11:03:05.871Z,56.93
2022-08-30T11:08:26.032Z,58.35
2022-08-30T11:13:30.965Z,52.20
2022-08-30T11:18:43.401Z,52.70
2022-08-30T11:24:02.402Z,55.40
2022-08-30T11:29:09.350Z,57.05
2022-08-30T11:34:12.602Z,58.40
2022-08-30T11:39:42.987Z,58.77
2022-08-30T11:44:45.357Z,55.00
2022-08-30T11:49:59.003Z,52.06
2022-08-30T11:55:21.428Z,52.89
2022-08-30T12:00:34.272Z,50.59
2022-08-30T12:05:59.990Z,51.69
2022-08-30T12:11:04.224Z,51.87
2022-08-30T12:16:07.329Z,52.71
2022-08-30T12:21:28.652Z,48.72
2022-08-30T12:26:35.808Z,48.05
2022-08-30T12:31:44.679Z,46.93
2022-08-30T12:36:54.027Z,49.17
2022-08-30T12:41:56.535Z,49.40
2022-08-30T12:47:03.304Z,48.39
2022-08-30T12:52:21.767Z,49.40
2022-08-30T12:57:38.522Z,50.43
2022-08-30T13:02:52.683Z,50.19
2022-08-30T13:08:10.709Z,47.77
2022-08-30T13:13:27.791Z,45.02
2022-08-30T13:28:59.112Z,47.24
2022-08-30T13:34:01.510Z,44.56
2022-08-30T13:39:04.760Z,43.92
2022-08-30T13:44:11.881Z,46.29
2022-08-30T13:54:40.577Z,47.56
2022-08-30T13:59:43.698Z,47.51
2022-08-30T14:04:52.950Z,49.20
2022-08-30T14:10:30.225Z,50.63
2022-08-30T14:15:18.571Z,50.58
2022-08-30T14:20:20.823Z,48.87
2022-08-30T14:25:22.770Z,47.95
2022-08-30T14:30:27.029Z,46.57
2022-08-30T14:35:29.631Z,47.01
2022-08-30T14:40:31.674Z,46.96
2022-08-30T14:45:37.033Z,45.82
2022-08-30T14:50:39.267Z,46.37
2022-08-30T14:55:41.299Z,47.77
2022-08-30T15:00:50.802Z,47.10
2022-08-30T15:05:53.560Z,46.88
2022-08-30T15:10:55.858Z,47.47
2022-08-30T15:15:59.369Z,51.17
2022-08-30T15:21:01.502Z,51.71
2022-08-30T15:26:04.882Z,52.83
2022-08-30T15:31:10.274Z,54.43
2022-08-30T15:36:13.083Z,53.16
2022-08-30T15:41:15.529Z,54.63
2022-08-30T15:46:21.962Z,57.77
2022-08-30T15:51:25.985Z,57.08
2022-08-30T15:56:28.176Z,57.56
2022-08-30T16:01:32.386Z,57.93
2022-08-30T16:06:36.312Z,58.65
2022-08-30T16:11:38.923Z,58.46
2022-08-30T16:16:42.403Z,57.97
2022-08-30T16:21:44.770Z,58.27
2022-08-30T16:26:47.667Z,57.91
2022-08-30T16:31:51.250Z,56.05
2022-08-30T16:36:53.985Z,56.82
2022-08-30T16:41:56.062Z,58.35
2022-08-30T16:46:59.836Z,58.58
2022-08-30T16:52:01.915Z,58.30
2022-08-30T16:57:06.472Z,57.69
2022-08-30T17:02:10.197Z,58.66
2022-08-30T17:07:13.734Z,58.74
2022-08-30T17:12:16.654Z,58.62
2022-08-30T17:17:22.225Z,59.24
2022-08-30T17:22:24.886Z,60.63
2022-08-30T17:27:28.819Z,61.12
2022-08-30T17:32:32.296Z,62.38
2022-08-30T17:37:34.334Z,63.05
2022-08-30T17:42:36.578Z,63.06
2022-08-30T17:47:40.585Z,63.15
2022-08-30T17:52:43.272Z,63.62
2022-08-30T17:57:46.362Z,62.88
2022-08-30T18:02:54.350Z,64.10
2022-08-30T18:07:56.399Z,63.88
2022-08-30T18:12:58.304Z,64.04
2022-08-30T18:18:01.672Z,64.75
2022-08-30T18:23:06.428Z,64.64
2022-08-30T18:28:10.243Z,64.88
2022-08-30T18:33:16.087Z,65.37
2022-08-30T18:38:23.722Z,66.08
2022-08-30T18:43:31.160Z,66.03
2022-08-30T18:48:35.334Z,66.98
2022-08-30T18:53:37.864Z,67.35
2022-08-30T18:58:39.862Z,67.28
2022-08-30T19:03:47.751Z,68.51
2022-08-30T19:08:51.021Z,67.70
2022-08-30T19:13:53.191Z,68.30
2022-08-30T19:18:56.863Z,68.21
2022-08-30T19:23:59.430Z,68.74
2022-08-30T19:29:01.846Z,69.35
2022-08-30T19:34:05.910Z,70.17
2022-08-30T19:39:08.274Z,70.16
2022-08-30T19:44:10.159Z,71.28
2022-08-30T19:49:13.743Z,71.14
2022-08-30T19:54:15.584Z,71.99
2022-08-30T19:59:19.381Z,72.00
2022-08-30T20:04:23.266Z,72.42
2022-08-30T20:09:27.408Z,72.60
2022-08-30T20:14:29.472Z,73.41
2022-08-30T20:19:32.792Z,73.60
2022-08-30T20:29:37.318Z,74.28
2022-08-30T20:34:40.363Z,75.27
2022-08-30T20:39:42.350Z,75.34
2022-08-30T20:44:44.231Z,76.24
2022-08-30T20:49:47.920Z,77.56
2022-08-30T20:54:49.621Z,76.87
2022-08-30T20:59:58.398Z,77.66
2022-08-30T21:05:04.205Z,78.02
2022-08-30T21:10:07.210Z,78.48
2022-08-30T21:15:33.904Z,79.02
2022-08-30T21:20:34.628Z,78.78
2022-08-30T21:25:38.181Z,78.11
2022-08-30T21:30:40.320Z,78.02
2022-08-30T21:35:43.766Z,77.59
2022-08-30T21:40:46.397Z,77.53
2022-08-30T21:45:48.756Z,76.42
2022-08-30T21:50:52.641Z,75.88
2022-08-30T21:55:54.606Z,76.19
2022-08-30T22:00:57.641Z,76.26
2022-08-30T22:06:00.881Z,76.34
2022-08-30T22:11:06.112Z,77.36
2022-08-30T22:16:08.703Z,77.12
2022-08-30T22:21:14.495Z,76.44
2022-08-30T22:26:17.904Z,76.46
2022-08-30T22:31:21.753Z,74.57
2022-08-30T22:36:32.762Z,73.95
2022-08-30T22:41:35.750Z,72.96
2022-08-30T22:46:38.121Z,72.64
2022-08-30T22:51:41.980Z,73.15
2022-08-30T22:56:44.189Z,72.06
2022-08-30T23:01:46.275Z,71.74
2022-08-30T23:06:50.375Z,71.79
2022-08-30T23:11:52.117Z,71.21
2022-08-30T23:16:54.181Z,71.13
2022-08-30T23:21:57.698Z,70.93
2022-08-30T23:26:59.748Z,71.28
2022-08-30T23:32:03.127Z,70.98
2022-08-30T23:37:06.575Z,71.01
2022-08-30T23:42:08.867Z,72.76
2022-08-30T23:47:10.683Z,73.08
2022-08-30T23:52:14.116Z,73.81
2022-08-30T23:57:16.089Z,74.32
